createdAt,value
2018-04-16T00:00:22.112Z,20.75
2018-04-16T00:02:49.621Z,20.95
2018-04-16T00:05:18.175Z,20.92
2018-04-16T00:07:45.754Z,22.00
2018-04-16T00:10:13.330Z,19.50
2018-04-16T00:12:41.619Z,20.98
2018-04-16T00:15:09.141Z,22.20
2018-04-16T00:17:36.924Z,21.80
2018-04-16T00:20:04.429Z,21.08
2018-04-16T00:22:32.458Z,20.88
2018-04-16T00:25:01.635Z,20.25
2018-04-16T00:27:29.952Z,20.75
2018-04-16T00:29:57.484Z,21.20
2018-04-16T00:32:30.614Z,20.88
2018-04-16T00:35:03.730Z,20.95
2018-04-16T00:37:36.829Z,20.73
2018-04-16T00:40:09.899Z,18.87
2018-04-16T00:42:43.233Z,24.65
2018-04-16T00:45:16.392Z,25.00
2018-04-16T00:47:49.540Z,24.10
2018-04-16T00:50:22.714Z,23.52
2018-04-16T00:52:55.825Z,24.60
2018-04-16T00:55:44.794Z,22.55
2018-04-16T00:58:17.921Z,22.42
2018-04-16T01:00:51.090Z,22.73
2018-04-16T01:03:24.250Z,21.62
2018-04-16T01:05:57.416Z,22.25
2018-04-16T01:08:30.565Z,23.23
2018-04-16T01:11:03.704Z,21.45
2018-04-16T01:13:36.844Z,21.20
2018-04-16T01:16:10.036Z,23.75
2018-04-16T01:18:43.254Z,24.92
2018-04-16T01:21:16.325Z,25.25
2018-04-16T01:24:01.663Z,24.00
2018-04-16T01:26:34.809Z,26.45
2018-04-16T01:29:07.984Z,26.70
2018-04-16T01:31:41.183Z,27.40
2018-04-16T01:34:14.271Z,25.80
2018-04-16T01:36:47.408Z,25.67
2018-04-16T01:39:20.539Z,26.87
2018-04-16T01:41:53.710Z,24.80
2018-04-16T01:44:27.614Z,26.42
2018-04-16T01:47:00.711Z,28.20
2018-04-16T01:49:34.610Z,25.58
2018-04-16T01:52:07.866Z,28.73
2018-04-16T01:54:40.963Z,27.33
2018-04-16T01:57:14.209Z,26.42
2018-04-16T01:59:47.492Z,26.25
2018-04-16T02:02:21.473Z,28.05
2018-04-16T02:05:07.750Z,27.73
2018-04-16T02:07:41.106Z,28.27
2018-04-16T02:10:14.233Z,27.77
2018-04-16T02:12:47.385Z,26.40
2018-04-16T02:15:21.295Z,26.55
2018-04-16T02:17:54.454Z,27.60
2018-04-16T02:20:27.587Z,26.90
2018-04-16T02:23:00.808Z,26.42
2018-04-16T02:25:33.908Z,27.85
2018-04-16T02:28:07.967Z,25.95
2018-04-16T02:30:41.836Z,27.92
2018-04-16T02:33:14.971Z,27.50
2018-04-16T02:35:49.054Z,27.80
2018-04-16T02:38:22.174Z,26.03
2018-04-16T02:41:09.600Z,27.85
2018-04-16T02:43:42.906Z,27.27
2018-04-16T02:46:16.255Z,28.67
2018-04-16T02:48:49.435Z,29.27
2018-04-16T02:51:22.606Z,28.55
2018-04-16T02:53:55.665Z,28.55
2018-04-16T02:56:28.831Z,29.75
2018-04-16T02:59:02.054Z,30.20
2018-04-16T03:01:36.164Z,28.77
2018-04-16T03:04:10.139Z,28.80
2018-04-16T03:06:43.245Z,29.27
2018-04-16T03:09:16.477Z,28.38
2018-04-16T03:11:49.714Z,28.98
2018-04-16T03:14:22.856Z,30.17
2018-04-16T03:16:56.004Z,27.40
2018-04-16T03:19:29.152Z,27.87
2018-04-16T03:22:02.413Z,27.98
2018-04-16T03:24:48.541Z,28.55
2018-04-16T03:27:21.780Z,29.35
2018-04-16T03:29:54.942Z,28.27
2018-04-16T03:32:28.229Z,29.73
2018-04-16T03:35:01.452Z,28.70
2018-04-16T03:37:34.615Z,29.20
2018-04-16T03:40:07.797Z,28.05
2018-04-16T03:42:41.124Z,27.02
2018-04-16T03:45:14.344Z,28.33
2018-04-16T03:47:47.506Z,28.67
2018-04-16T03:50:20.770Z,28.08
2018-04-16T03:52:53.933Z,28.15
2018-04-16T03:55:24.266Z,27.20
2018-04-16T03:57:51.787Z,27.95
2018-04-16T04:00:20.070Z,27.65
2018-04-16T04:02:47.601Z,29.75
2018-04-16T04:05:15.128Z,27.30
2018-04-16T04:07:42.651Z,28.90
2018-04-16T04:10:10.171Z,28.45
2018-04-16T04:12:37.717Z,27.83
2018-04-16T04:15:05.302Z,28.40
2018-04-16T04:17:32.885Z,26.80
2018-04-16T04:20:00.435Z,27.98
2018-04-16T04:22:40.050Z,27.20
2018-04-16T04:25:19.447Z,27.47
2018-04-16T04:27:58.770Z,29.70
2018-04-16T04:30:41.168Z,28.98
2018-04-16T04:33:08.698Z,29.20
2018-04-16T04:35:36.222Z,30.80
2018-04-16T04:38:04.533Z,30.02
2018-04-16T04:40:32.057Z,30.50
2018-04-16T04:43:00.334Z,28.23
2018-04-16T04:45:28.626Z,29.75
2018-04-16T04:47:56.192Z,28.00
2018-04-16T04:50:23.761Z,28.25
2018-04-16T04:52:51.286Z,27.58
2018-04-16T04:55:18.817Z,30.15
2018-04-16T04:57:46.358Z,29.02
2018-04-16T05:00:13.903Z,29.73
2018-04-16T05:02:41.425Z,29.27
2018-04-16T05:05:09.728Z,29.05
2018-04-16T05:07:37.265Z,29.27
2018-04-16T05:10:04.777Z,31.20
2018-04-16T05:12:32.313Z,30.67
2018-04-16T05:14:59.844Z,31.92
2018-04-16T05:17:28.143Z,31.45
2018-04-16T05:19:55.658Z,30.13
2018-04-16T05:22:23.176Z,29.90
2018-04-16T05:24:50.682Z,30.40
2018-04-16T05:27:18.323Z,29.85
2018-04-16T05:29:45.882Z,29.98
2018-04-16T05:32:13.405Z,28.45
2018-04-16T05:34:41.014Z,28.75
2018-04-16T05:37:08.564Z,28.42
2018-04-16T05:39:36.076Z,27.80
2018-04-16T05:42:03.783Z,27.05
2018-04-16T05:44:31.351Z,26.50
2018-04-16T05:46:58.900Z,28.57
2018-04-16T05:49:26.489Z,28.67
2018-04-16T05:51:53.996Z,26.85
2018-04-16T05:54:21.544Z,29.02
2018-04-16T05:56:49.066Z,29.10
2018-04-16T05:59:16.786Z,30.40
2018-04-16T06:01:44.301Z,28.62
2018-04-16T06:04:12.634Z,27.42
2018-04-16T06:06:40.246Z,29.67
2018-04-16T06:09:07.710Z,27.73
2018-04-16T06:11:35.270Z,29.63
2018-04-16T06:14:02.865Z,30.98
2018-04-16T06:16:30.393Z,28.90
2018-04-16T06:18:57.917Z,28.33
2018-04-16T06:21:25.440Z,30.77
2018-04-16T06:23:53.004Z,30.83
2018-04-16T06:26:20.541Z,30.52
2018-04-16T06:28:48.073Z,32.75
2018-04-16T06:31:15.639Z,31.37
2018-04-16T06:33:43.200Z,30.07
2018-04-16T06:36:10.743Z,31.73
2018-04-16T06:38:38.251Z,29.08
2018-04-16T06:41:05.811Z,29.12
2018-04-16T06:43:33.437Z,30.10
2018-04-16T06:46:00.969Z,31.20
2018-04-16T06:48:28.571Z,31.73
2018-04-16T06:50:56.262Z,32.00
2018-04-16T06:53:23.790Z,30.60
2018-04-16T06:55:52.101Z,31.73
2018-04-16T06:58:19.633Z,31.75
2018-04-16T07:00:47.213Z,32.95
2018-04-16T07:03:14.742Z,30.67
2018-04-16T07:05:42.287Z,32.80
2018-04-16T07:08:09.864Z,29.58
2018-04-16T07:10:37.572Z,31.15
2018-04-16T07:13:05.135Z,32.22
2018-04-16T07:15:32.679Z,30.73
2018-04-16T07:18:00.227Z,30.65
2018-04-16T07:20:27.816Z,32.75
2018-04-16T07:22:55.325Z,32.27
2018-04-16T07:25:23.617Z,33.10
2018-04-16T07:27:52.019Z,31.08
2018-04-16T07:30:19.532Z,32.58
2018-04-16T07:32:47.060Z,31.92
2018-04-16T07:35:16.016Z,33.20
2018-04-16T07:37:43.527Z,36.25
2018-04-16T07:40:11.050Z,33.78
2018-04-16T07:42:38.580Z,34.75
2018-04-16T07:45:06.102Z,34.03
2018-04-16T07:47:33.728Z,33.25
2018-04-16T07:50:01.287Z,34.80
2018-04-16T07:52:28.853Z,33.22
2018-04-16T07:54:56.433Z,30.95
2018-04-16T07:57:23.966Z,30.13
2018-04-16T07:59:51.505Z,31.70
2018-04-16T08:02:19.910Z,33.13
2018-04-16T08:04:47.469Z,31.42
2018-04-16T08:07:15.018Z,33.63
2018-04-16T08:09:42.585Z,33.00
2018-04-16T08:12:10.190Z,32.60
2018-04-16T08:14:37.764Z,38.05
2018-04-16T08:17:05.382Z,34.65
2018-04-16T08:19:33.037Z,32.42
2018-04-16T08:22:00.581Z,37.40
2018-04-16T08:24:28.114Z,39.05
2018-04-16T08:26:55.657Z,37.05
2018-04-16T08:29:23.179Z,37.80
2018-04-16T08:31:50.714Z,40.08
2018-04-16T08:34:19.007Z,39.63
2018-04-16T08:36:46.517Z,38.97
2018-04-16T08:39:14.033Z,39.28
2018-04-16T08:41:41.637Z,36.95
2018-04-16T08:44:09.169Z,38.40
2018-04-16T08:46:36.757Z,39.13
2018-04-16T08:49:04.273Z,36.72
2018-04-16T08:51:31.806Z,36.17
2018-04-16T08:54:00.086Z,35.20
2018-04-16T08:56:28.385Z,33.75
2018-04-16T08:58:55.914Z,35.35
2018-04-16T09:01:23.470Z,34.53
2018-04-16T09:03:51.097Z,32.17
2018-04-16T09:06:18.610Z,33.53
2018-04-16T09:08:46.914Z,33.05
2018-04-16T09:11:14.504Z,35.08
2018-04-16T09:13:42.043Z,33.20
2018-04-16T09:16:09.618Z,32.05
2018-04-16T09:18:37.166Z,33.15
2018-04-16T09:21:04.711Z,33.23
2018-04-16T09:23:32.226Z,34.03
2018-04-16T09:26:00.643Z,35.95
2018-04-16T09:28:28.226Z,34.43
2018-04-16T09:30:55.733Z,34.20
2018-04-16T09:33:23.254Z,33.75
2018-04-16T09:35:50.785Z,30.70
2018-04-16T09:38:18.334Z,29.80
2018-04-16T09:40:45.837Z,27.98
2018-04-16T09:43:13.385Z,27.15
2018-04-16T09:45:40.930Z,31.15
2018-04-16T09:48:08.467Z,32.70
2018-04-16T09:50:36.061Z,31.27
2018-04-16T09:53:03.612Z,31.70
2018-04-16T09:55:31.185Z,31.67
2018-04-16T09:57:58.848Z,32.80
2018-04-16T10:00:27.889Z,31.60
2018-04-16T10:03:06.213Z,31.83
2018-04-16T10:05:33.737Z,31.62
2018-04-16T10:08:01.273Z,31.35
2018-04-16T10:10:28.810Z,30.48
2018-04-16T10:12:56.344Z,32.08
2018-04-16T10:15:24.717Z,31.92
2018-04-16T10:17:52.393Z,29.67
2018-04-16T10:20:20.663Z,29.60
2018-04-16T10:22:48.197Z,30.98
2018-04-16T10:25:16.532Z,31.58
2018-04-16T10:27:44.099Z,27.83
2018-04-16T10:30:11.696Z,28.73
2018-04-16T10:32:39.309Z,30.20
2018-04-16T10:35:06.841Z,30.92
2018-04-16T10:37:34.384Z,30.58
2018-04-16T10:40:01.898Z,27.42
2018-04-16T10:42:29.434Z,30.37
2018-04-16T10:44:57.002Z,27.98
2018-04-16T10:47:24.526Z,26.95
2018-04-16T10:49:52.074Z,29.05
2018-04-16T10:52:19.586Z,30.37
2018-04-16T10:54:47.137Z,26.73
2018-04-16T10:57:14.651Z,24.98
2018-04-16T10:59:42.174Z,26.10
2018-04-16T11:02:09.690Z,25.50
2018-04-16T11:04:37.213Z,25.98
2018-04-16T11:07:04.759Z,27.13
2018-04-16T11:09:32.283Z,25.92
2018-04-16T11:11:59.858Z,25.37
2018-04-16T11:14:27.364Z,23.58
2018-04-16T11:16:54.908Z,23.48
2018-04-16T11:19:22.419Z,22.10
2018-04-16T11:21:50.706Z,21.23
2018-04-16T11:24:18.235Z,24.05
2018-04-16T11:26:45.758Z,23.42
2018-04-16T11:29:13.270Z,25.58
2018-04-16T11:31:41.544Z,25.75
2018-04-16T11:34:09.871Z,25.37
2018-04-16T11:36:37.665Z,21.60
2018-04-16T11:39:05.201Z,22.50
2018-04-16T11:41:32.740Z,23.48
2018-04-16T11:44:03.835Z,22.95
2018-04-16T11:46:31.490Z,23.92
2018-04-16T11:48:59.013Z,25.92
2018-04-16T11:51:26.535Z,22.77
2018-04-16T11:53:54.821Z,22.65
2018-04-16T11:56:22.369Z,22.40
2018-04-16T11:58:49.989Z,22.23
2018-04-16T12:01:17.529Z,21.65
2018-04-16T12:03:45.193Z,21.15
2018-04-16T12:06:12.764Z,20.80
2018-04-16T12:08:40.308Z,19.05
2018-04-16T12:11:07.826Z,21.40
2018-04-16T12:13:36.106Z,20.48
2018-04-16T12:16:03.680Z,21.50
2018-04-16T12:18:31.970Z,23.15
2018-04-16T12:20:59.655Z,22.15
2018-04-16T12:23:27.179Z,23.48
2018-04-16T12:25:55.509Z,19.73
2018-04-16T12:28:23.855Z,23.08
2018-04-16T12:30:51.394Z,19.85
2018-04-16T12:33:19.746Z,22.67
2018-04-16T12:35:47.278Z,21.83
2018-04-16T12:38:14.786Z,19.58
2018-04-16T12:40:43.059Z,24.20
2018-04-16T12:43:11.421Z,21.50
2018-04-16T12:45:38.960Z,22.92
2018-04-16T12:48:06.611Z,25.00
2018-04-16T12:50:34.092Z,25.42
2018-04-16T12:53:01.637Z,24.40
2018-04-16T12:55:29.151Z,23.83
2018-04-16T12:57:56.671Z,24.87
2018-04-16T13:00:24.190Z,22.92
2018-04-16T13:02:51.765Z,21.55
2018-04-16T13:05:19.288Z,22.33
2018-04-16T13:07:47.575Z,24.90
2018-04-16T13:10:15.114Z,27.25
2018-04-16T13:12:42.660Z,24.15
2018-04-16T13:15:10.310Z,26.37
2018-04-16T13:17:37.841Z,23.02
2018-04-16T13:20:05.429Z,22.92
2018-04-16T13:22:32.961Z,24.08
2018-04-16T13:25:00.521Z,23.23
2018-04-16T13:27:28.067Z,26.58
2018-04-16T13:29:55.625Z,24.87
2018-04-16T13:32:23.132Z,23.35
2018-04-16T13:34:50.700Z,23.42
2018-04-16T13:37:18.242Z,22.80
2018-04-16T13:39:45.771Z,23.05
2018-04-16T13:42:13.296Z,27.62
2018-04-16T13:44:40.984Z,28.15
2018-04-16T13:47:08.555Z,31.87
2018-04-16T13:49:36.126Z,26.77
2018-04-16T13:52:03.633Z,30.10
2018-04-16T13:54:32.131Z,27.42
2018-04-16T13:56:59.666Z,28.25
2018-04-16T13:59:27.191Z,31.75
2018-04-16T14:01:54.753Z,31.20
2018-04-16T14:04:22.281Z,28.42
2018-04-16T14:06:49.927Z,29.12
2018-04-16T14:09:17.703Z,28.58
2018-04-16T14:11:45.509Z,26.62
2018-04-16T14:14:13.096Z,27.65
2018-04-16T14:16:40.656Z,27.33
2018-04-16T14:19:08.197Z,26.20
2018-04-16T14:21:35.754Z,25.42
2018-04-16T14:24:03.614Z,23.85
2018-04-16T14:26:31.195Z,24.23
2018-04-16T14:28:58.741Z,27.67
2018-04-16T14:31:26.306Z,26.08
2018-04-16T14:33:53.873Z,27.30
2018-04-16T14:36:21.424Z,24.17
2018-04-16T14:38:48.958Z,26.83
2018-04-16T14:41:16.484Z,27.00
2018-04-16T14:43:45.228Z,26.85
2018-04-16T14:46:12.773Z,30.70
2018-04-16T14:48:40.309Z,30.52
2018-04-16T14:51:07.922Z,33.00
2018-04-16T14:53:35.565Z,29.37
2018-04-16T14:56:03.156Z,30.48
2018-04-16T14:58:30.672Z,32.17
2018-04-16T15:00:58.242Z,33.60
2018-04-16T15:03:25.750Z,33.40
2018-04-16T15:05:53.275Z,32.75
2018-04-16T15:08:20.916Z,33.50
2018-04-16T15:10:48.457Z,34.55
2018-04-16T15:13:15.979Z,31.52
2018-04-16T15:15:43.481Z,35.72
2018-04-16T15:18:11.091Z,40.33
2018-04-16T15:20:38.747Z,36.90
2018-04-16T15:23:07.104Z,42.30
2018-04-16T15:25:34.641Z,40.38
2018-04-16T15:28:03.384Z,34.22
2018-04-16T15:30:30.950Z,37.72
2018-04-16T15:32:58.581Z,36.80
2018-04-16T15:35:26.173Z,36.05
2018-04-16T15:37:53.729Z,40.45
2018-04-16T15:40:21.276Z,39.15
2018-04-16T15:42:48.870Z,37.00
2018-04-16T15:45:17.751Z,38.13
2018-04-16T15:47:45.276Z,40.08
2018-04-16T15:50:12.800Z,38.60
2018-04-16T15:52:40.616Z,37.53
2018-04-16T15:55:09.026Z,39.72
2018-04-16T15:57:36.573Z,39.08
2018-04-16T16:00:04.112Z,42.90
2018-04-16T16:02:31.755Z,41.22
2018-04-16T16:05:00.073Z,41.50
2018-04-16T16:07:28.393Z,42.97
2018-04-16T16:09:56.176Z,42.83
2018-04-16T16:12:23.787Z,43.45
2018-04-16T16:14:51.350Z,44.75
2018-04-16T16:17:19.717Z,46.20
2018-04-16T16:19:47.268Z,44.78
2018-04-16T16:22:14.829Z,39.63
2018-04-16T16:24:42.362Z,47.10
2018-04-16T16:27:09.882Z,43.40
2018-04-16T16:29:38.447Z,44.53
2018-04-16T16:32:06.046Z,43.13
2018-04-16T16:34:33.609Z,44.17
2018-04-16T16:37:01.106Z,45.92
2018-04-16T16:39:28.628Z,45.08
2018-04-16T16:41:56.152Z,47.28
2018-04-16T16:44:23.748Z,49.30
2018-04-16T16:46:51.276Z,44.33
2018-04-16T16:49:18.879Z,43.58
2018-04-16T16:51:46.421Z,43.80
2018-04-16T16:54:13.970Z,45.10
2018-04-16T16:56:41.532Z,46.10
2018-04-16T16:59:09.164Z,47.95
2018-04-16T17:01:36.687Z,49.80
2018-04-16T17:04:04.243Z,46.28
2018-04-16T17:06:31.765Z,44.10
2018-04-16T17:09:00.077Z,48.70
2018-04-16T17:11:27.613Z,45.60
2018-04-16T17:13:55.189Z,44.72
2018-04-16T17:16:22.858Z,46.35
2018-04-16T17:18:50.417Z,47.03
2018-04-16T17:21:17.959Z,47.90
2018-04-16T17:23:45.484Z,50.63
2018-04-16T17:26:13.038Z,46.25
2018-04-16T17:28:40.619Z,48.50
2018-04-16T17:31:08.913Z,47.47
2018-04-16T17:33:36.456Z,45.40
2018-04-16T17:36:05.044Z,49.00
2018-04-16T17:38:32.670Z,49.20
2018-04-16T17:41:00.215Z,50.58
2018-04-16T17:43:27.966Z,46.90
2018-04-16T17:45:55.525Z,49.03
2018-04-16T17:48:23.090Z,47.38
2018-04-16T17:50:50.616Z,47.90
2018-04-16T17:53:18.950Z,49.20
2018-04-16T17:55:46.465Z,47.08
2018-04-16T17:58:14.086Z,47.22
2018-04-16T18:00:42.609Z,49.15
2018-04-16T18:03:10.163Z,47.70
2018-04-16T18:05:37.729Z,47.47
2018-04-16T18:08:05.286Z,48.85
2018-04-16T18:10:32.878Z,47.20
2018-04-16T18:13:01.045Z,51.35
2018-04-16T18:15:28.597Z,47.95
2018-04-16T18:17:56.135Z,46.67
2018-04-16T18:20:24.447Z,49.60
2018-04-16T18:22:52.053Z,46.67
2018-04-16T18:25:19.612Z,45.40
2018-04-16T18:27:47.203Z,46.00
2018-04-16T18:30:14.733Z,44.40
2018-04-16T18:32:42.290Z,46.67
2018-04-16T18:35:09.854Z,46.47
2018-04-16T18:37:37.472Z,47.08
2018-04-16T18:40:05.058Z,47.20
2018-04-16T18:42:32.585Z,45.28
2018-04-16T18:45:00.133Z,46.75
2018-04-16T18:47:27.751Z,46.83
2018-04-16T18:49:55.575Z,44.05
2018-04-16T18:52:23.110Z,45.10
2018-04-16T18:54:50.640Z,46.23
2018-04-16T18:57:18.206Z,44.72
2018-04-16T18:59:45.879Z,47.62
2018-04-16T19:02:13.427Z,47.88
2018-04-16T19:04:41.785Z,45.92
2018-04-16T19:07:09.361Z,44.67
2018-04-16T19:09:36.895Z,46.58
2018-04-16T19:12:04.941Z,45.93
2018-04-16T19:14:32.717Z,46.40
2018-04-16T19:17:00.359Z,47.42
2018-04-16T19:19:28.903Z,47.40
2018-04-16T19:21:57.308Z,46.25
2018-04-16T19:24:25.052Z,47.40
2018-04-16T19:26:58.373Z,46.67
2018-04-16T19:29:26.880Z,46.65
2018-04-16T19:31:54.457Z,46.83
2018-04-16T19:34:27.637Z,45.60
2018-04-16T19:36:55.270Z,45.53
2018-04-16T19:39:22.986Z,44.35
2018-04-16T19:41:56.502Z,44.55
2018-04-16T19:44:24.395Z,46.47
2018-04-16T19:46:52.721Z,74.95
2018-04-16T19:49:26.311Z,41.93
2018-04-16T19:51:54.094Z,44.25
2018-04-16T19:54:21.695Z,45.35
2018-04-16T19:56:55.051Z,42.95
2018-04-16T19:59:22.618Z,43.33
2018-04-16T20:01:55.911Z,43.25
2018-04-16T20:04:24.218Z,40.67
2018-04-16T20:06:51.802Z,41.08
2018-04-16T20:09:19.333Z,41.72
2018-04-16T20:11:47.001Z,40.88
2018-04-16T20:14:15.403Z,49.40
2018-04-16T20:16:44.027Z,65.62
2018-04-16T20:19:11.570Z,46.10
2018-04-16T20:21:40.203Z,39.45
2018-04-16T20:24:08.572Z,45.63
2018-04-16T20:26:36.172Z,71.18
2018-04-16T20:29:03.753Z,42.30
2018-04-16T20:31:32.078Z,76.12
2018-04-16T20:33:59.637Z,47.28
2018-04-16T20:36:32.156Z,48.47
2018-04-16T20:38:59.728Z,40.28
2018-04-16T20:41:27.372Z,39.95
2018-04-16T20:43:54.951Z,40.50
2018-04-16T20:46:22.573Z,44.22
2018-04-16T20:48:50.903Z,43.97
2018-04-16T20:51:18.466Z,66.00
2018-04-16T20:53:46.020Z,43.78
2018-04-16T20:56:13.599Z,44.30
2018-04-16T20:58:41.252Z,45.58
2018-04-16T21:01:08.903Z,45.90
2018-04-16T21:03:36.481Z,55.92
2018-04-16T21:06:04.118Z,49.95
2018-04-16T21:08:31.658Z,48.60
2018-04-16T21:10:59.238Z,48.85
2018-04-16T21:13:26.809Z,48.20
2018-04-16T21:15:55.180Z,52.72
2018-04-16T21:18:23.084Z,76.87
2018-04-16T21:20:50.641Z,53.13
2018-04-16T21:23:18.237Z,48.30
2018-04-16T21:25:45.811Z,49.70
2018-04-16T21:28:13.371Z,49.58
2018-04-16T21:30:41.797Z,49.17
2018-04-16T21:33:09.307Z,52.03
2018-04-16T21:35:37.604Z,56.63
2018-04-16T21:38:05.175Z,61.87
2018-04-16T21:40:32.719Z,55.30
2018-04-16T21:43:00.291Z,54.17
2018-04-16T21:45:27.926Z,51.05
2018-04-16T21:47:55.559Z,55.55
2018-04-16T21:50:23.178Z,57.58
2018-04-16T21:52:50.698Z,54.07
2018-04-16T21:55:19.065Z,57.33
2018-04-16T21:57:46.604Z,53.05
2018-04-16T22:00:14.161Z,59.85
2018-04-16T22:02:41.695Z,56.05
2018-04-16T22:05:09.354Z,66.45
2018-04-16T22:07:36.897Z,53.03
2018-04-16T22:10:04.570Z,57.58
2018-04-16T22:12:32.117Z,58.42
2018-04-16T22:15:00.789Z,57.17
2018-04-16T22:17:28.316Z,55.17
2018-04-16T22:19:55.882Z,57.83
2018-04-16T22:22:24.955Z,61.15
2018-04-16T22:24:53.456Z,61.63
2018-04-16T22:27:21.000Z,58.35
2018-04-16T22:29:48.528Z,56.20
2018-04-16T22:32:16.075Z,54.72
2018-04-16T22:34:44.393Z,54.58
2018-04-16T22:37:11.967Z,57.53
2018-04-16T22:39:39.511Z,56.75
2018-04-16T22:42:07.110Z,53.77
2018-04-16T22:44:34.649Z,56.17
2018-04-16T22:47:02.182Z,57.07
2018-04-16T22:49:29.758Z,56.22
2018-04-16T22:51:57.300Z,59.83
2018-04-16T22:54:24.829Z,59.05
2018-04-16T22:56:53.133Z,58.20
2018-04-16T22:59:20.689Z,54.47
2018-04-16T23:01:48.268Z,56.28
2018-04-16T23:04:15.826Z,51.97
2018-04-16T23:06:43.352Z,50.55
2018-04-16T23:09:10.877Z,56.83
2018-04-16T23:11:38.404Z,54.38
2018-04-16T23:14:05.963Z,55.75
2018-04-16T23:16:33.520Z,53.55
2018-04-16T23:19:01.139Z,52.92
2018-04-16T23:21:28.636Z,53.35
2018-04-16T23:23:56.180Z,54.05
2018-04-16T23:26:24.374Z,55.17
2018-04-16T23:28:51.890Z,50.58
2018-04-16T23:31:19.394Z,53.22
2018-04-16T23:33:46.929Z,53.33
2018-04-16T23:36:14.533Z,53.33
2018-04-16T23:38:42.033Z,50.40
2018-04-16T23:41:10.346Z,50.97
2018-04-16T23:43:38.842Z,48.75
2018-04-16T23:46:06.383Z,45.35
2018-04-16T23:48:33.917Z,48.08
2018-04-16T23:51:02.216Z,46.42
2018-04-16T23:53:29.734Z,48.35
2018-04-16T23:55:57.256Z,47.33
2018-04-16T23:58:24.774Z,46.10
